Tiempo atmosférico en la estación meteorológica de Burgo de Osma, Soria (932 m.)



Fecha
DESCASC
Temp. máxima en grados centígrados (hora)
DESCASC
Temp. mínima en grados centígrados (hora)
DESCASC
Temp. media en grados centígrados
DESCASC
Racha de viento máxima en m/sg (hora)
DESCASC
Velocidad máxima media en intervalos de 10 minutos(hora)
DESCASC
Precipitaciones diarias en mm
DESCASC
Precipitaciones de 00:00 a 06:00 en mm
DESCASC
Precipitaciones de 06:00 a 12:00 en mm
DESCASC
Precipitaciones de 12:00 a 18:00 en mm
DESCASC
Precipitaciones de 18:00 a 24:00 en mm
DESCASC
18-01-2018 12.8 (15:50) -4.5 (08:30) 4.2 6.94 (15:00) 3.61 (15:00) 0 0 0 0 0
17-01-2018 9.7 (15:00) -0.8 (23:59) 4.4 10.83 (07:00) 7.78 (06:00) 0 0 0 0 0
16-01-2018 8.3 (16:10) 3.8 (00:00) 6.1 15 (23:10) 10 (23:10) 0.8 0 0.8 0 0
15-01-2018 4.1 (22:00) -1.6 (04:50) 1.2 7.22 (06:10) 5.28 (06:10) 0 0 0 0 0
14-01-2018 2.6 (12:40) -0.8 (-00:0) 0.9 8.06 (05:20) 5 (05:20) 1.4 1.2 0.2 0 0
13-01-2018 5.3 (14:00) -2.5 (-00:0) 1.4 10.83 (23:10) 7.22 (22:00) 5.4 0 0 1.6 3.8
12-01-2018 5.5 (15:50) -1.9 (-00:0) 1.8 10.28 (02:00) 8.06 (02:00) 0 0 0 0 0
11-01-2018 4.6 (15:20) 0.8 (00:00) 2.7 13.61 (13:30) 10 (11:20) 0 0 0 0 0
10-01-2018 5 (16:20) 0.2 (00:00) 2.6 17.22 (18:20) 11.11 (20:00) 9 4.6 2.6 0.4 1.4
09-01-2018 2.4 (14:50) -10.7 (-00:0) -4.1 2.78 (17:50) 1.94 (18:20) 1.8 0 0 0 1.8
08-01-2018 6.1 (15:20) -8.8 (-00:0) -1.4 5 (19:30) 4.17 (19:30) 5 0 0.2 4.8 0
07-01-2018 3.5 (12:50) -3.9 (-00:0) -0.2 9.72 (14:40) 6.39 (15:50) 19 0.2 3.6 15 0.2
06-01-2018 3.4 (00:00) 0 (00:00) 1.7 10 (00:10) 6.67 (00:10) 18 5.4 2.4 8.8 1.4
05-01-2018 9.8 (13:50) 3.4 (00:00) 6.6 14.72 (13:50) 11.11 (13:50) 8.8 0 0 2 6.8
04-01-2018 10.9 (12:20) 9.1 (18:40) 10 14.17 (13:40) 10 (14:20) 0 0 0 0 0
03-01-2018 11.8 (17:50) 9.4 (00:00) 10.6 15 (04:20) 10.83 (04:10) 0 0 0 0 0
02-01-2018 9.4 (23:40) 5.7 (00:00) 7.5 16.94 (02:20) 11.39 (07:20) 1.2 0 0 0.8 0.4
01-01-2018 7.9 (21:30) 0.9 (00:00) 4.4 17.78 (12:20) 13.61 (12:10) 0 0 0 0 0
31-12-2017 10.9 (14:50) 1.7 (00:00) 6.3 18.61 (17:20) 13.06 (17:30) 2.8 0 0 2.6 0.2
30-12-2017 11.7 (14:10) 2.8 (00:00) 7.2 11.39 (12:30) 8.61 (12:30) 0 0 0 0 0
29-12-2017 11.4 (15:10) 1.7 (00:00) 6.5 13.89 (09:50) 9.72 (10:00) 1.4 0 1.4 0 0
28-12-2017 10.9 (17:00) 2.9 (00:00) 6.9 15 (15:20) 10.28 (15:20) 4.2 0.6 3.2 0.4 0
27-12-2017 6.8 (02:10) 2.5 (00:00) 4.7 26.94 (02:40) 19.17 (02:40) 6.6 4.6 0 1.4 0.6
26-12-2017 5.8 (21:20) 2.5 (00:00) 4.2 17.22 (21:10) 11.39 (23:30) 3.2 0.6 0.2 0.6 1.8
25-12-2017 9.7 (15:30) -5.5 (-00:0) 2.1 5.83 (19:00) 3.89 (19:10) 0 0 0 0 0
24-12-2017 14.2 (15:50) -3.2 (-00:0) 5.5 4.44 (12:10) 2.78 (12:10) 0 0 0 0 0

Gráficas

Temp. máximas Temp. mínimas Temp. medias Precipitaciones Rachas de viento máximas Velocidades máximas media en intervalos de 10 minutos

Datos horarios

Fecha y hora oficial Temperatura (ºC) Velocidad del viento (km/h) Dirección del viento Racha (km/h) Dirección de racha Precipitación (mm) Presión (hPa) Tendencia (hPa) Humedad (%)
2018-01-22 23:00:00 2 5 Oeste 10 Oeste 0 -- -- 93
2018-01-22 22:00:00 4 10 Oeste 12 Oeste 0 -- -- 92
2018-01-22 21:00:00 3.9 10 Oeste 14 Oeste 0 -- -- 91
2018-01-22 20:00:00 5.2 11 Oeste 14 Oeste 0 -- -- 87
2018-01-22 19:00:00 5.7 10 Oeste 19 Oeste 0 -- -- 86
2018-01-22 18:00:00 6.8 15 Oeste 26 Oeste 0 -- -- 82
2018-01-22 17:00:00 7.1 19 Oeste 38 Oeste 0 -- -- 81
2018-01-22 16:00:00 7.1 20 Noroeste 29 Oeste 0 -- -- 81
2018-01-22 15:00:00 7 19 Oeste 31 Oeste 0 -- -- 82
2018-01-22 14:00:00 7.1 23 Oeste 37 Oeste 0 -- -- 84
2018-01-22 13:00:00 6.9 20 Oeste 31 Noroeste 0 -- -- 85
2018-01-22 12:00:00 6.4 16 Oeste 26 Oeste 0 -- -- 90
2018-01-22 11:00:00 5.7 16 Oeste 24 Oeste 0 -- -- 95
2018-01-22 10:00:00 5.2 13 Oeste 19 Oeste 0 -- -- 96
2018-01-22 09:00:00 4.6 13 Oeste 22 Oeste 0 -- -- 98
2018-01-22 08:00:00 4.4 13 Oeste 24 Oeste 0 -- -- 98
2018-01-22 07:00:00 4.4 15 Oeste 30 Oeste 0 -- -- 98
2018-01-22 06:00:00 4.3 21 Oeste 30 Oeste 0 -- -- 98
2018-01-22 05:00:00 4.6 13 Oeste 25 Oeste 0 -- -- 97
2018-01-22 04:00:00 5.2 15 Oeste 22 Oeste 0 -- -- 97
2018-01-22 03:00:00 5.1 9 Oeste 16 Oeste 0 -- -- 97
2018-01-22 02:00:00 5.2 8 Oeste 18 Oeste 0 -- -- 96
2018-01-22 01:00:00 5.6 15 Oeste 31 Oeste 0 -- -- 93
2018-01-22 00:00:00 6.5 10 Oeste 19 Oeste 0 -- -- 93
2018-01-21 23:00:00 6.7 11 Noroeste 18 Oeste 0 -- -- 92
2018-01-21 22:00:00 6.7 9 Noroeste 17 Noroeste 0 -- -- 91
2018-01-21 21:00:00 6.6 10 Oeste 18 Oeste 0 -- -- 92
2018-01-21 20:00:00 6.8 12 Oeste 18 Noroeste 0 -- -- 91
2018-01-21 19:00:00 6.8 10 Noroeste 21 Noroeste 0 -- -- 92
2018-01-21 18:00:00 6.7 17 Noroeste 26 Noroeste 0 -- -- 91
2018-01-21 17:00:00 6.8 13 Oeste 30 Oeste 0 -- -- 91
2018-01-21 16:00:00 6.9 18 Noroeste 28 Noroeste 0 -- -- 90
2018-01-21 15:00:00 6.5 20 Oeste 29 Oeste 0 -- -- 92
2018-01-21 14:00:00 6.8 17 Oeste 29 Oeste 0 -- -- 91
2018-01-21 13:00:00 6.9 18 Oeste 39 Oeste 0 -- -- 90
2018-01-21 12:00:00 6.8 22 Oeste 30 Oeste 0 -- -- 92
2018-01-21 11:00:00 6.3 20 Oeste 35 Oeste 0 -- -- 96
2018-01-21 10:00:00 5.7 26 Oeste 34 Oeste 0 -- -- 98
2018-01-21 09:00:00 5.2 15 Oeste 20 Oeste 0 -- -- 98
2018-01-21 08:00:00 5.1 13 Oeste 26 Oeste 0 -- -- 97
2018-01-21 07:00:00 5.1 17 Oeste 37 Noroeste 0 -- -- 96
2018-01-21 06:00:00 5.4 25 Oeste 35 Oeste 0 -- -- 95
2018-01-21 05:00:00 6 15 Noroeste 34 Oeste 0 -- -- 92
2018-01-21 04:00:00 6.2 20 Oeste 33 Oeste 0 -- -- 91
2018-01-21 03:00:00 6.2 25 Oeste 36 Oeste 0 -- -- 89
2018-01-21 02:00:00 6.2 24 Oeste 33 Oeste 0 -- -- 88
2018-01-21 01:00:00 6.3 23 Oeste 33 Oeste 0 -- -- 87
2018-01-21 00:00:00 6.9 19 Oeste 28 Oeste 0 -- -- 85
2018-01-20 23:00:00 6.9 19 Oeste 28 Oeste 0 -- -- 81
2018-01-20 22:00:00 7.1 19 Oeste 31 Oeste 0 -- -- 78
2018-01-20 21:00:00 7.9 20 Oeste 28 Oeste 0 -- -- 75
2018-01-20 20:00:00 7.8 19 Oeste 28 Oeste 0 -- -- 77
2018-01-20 19:00:00 7.5 18 Oeste 27 Oeste 0 -- -- 74
2018-01-20 18:00:00 9 23 Oeste 41 Oeste 0 -- -- 66
2018-01-20 17:00:00 10 31 Oeste 49 Oeste 0 -- -- 61
2018-01-20 16:00:00 10.3 35 Oeste 47 Oeste 0 -- -- 55
2018-01-20 15:00:00 9.9 31 Oeste 46 Oeste 0 -- -- 56
2018-01-20 14:00:00 9.3 34 Oeste 48 Oeste 0 -- -- 63
2018-01-20 13:00:00 7.4 24 Oeste 36 Oeste 0 -- -- 71
2018-01-20 12:00:00 4.7 15 Noroeste 28 Oeste 0 -- -- 92
2018-01-20 11:00:00 3.3 15 Noroeste 25 Oeste 0 -- -- 97
2018-01-20 10:00:00 1.7 9 Noroeste 16 Noroeste 0 -- -- 99
2018-01-20 09:00:00 0.9 9 Noroeste 14 Noroeste 0 -- -- 99
2018-01-20 08:00:00 1.2 4 Noroeste 14 Oeste 0 -- -- 98
2018-01-20 07:00:00 1.4 9 Noroeste 14 Noroeste 0 -- -- 98
2018-01-20 06:00:00 0.8 9 Oeste 13 Oeste 0 -- -- 100
2018-01-20 05:00:00 -1.9 2 Sudeste 3 Sudeste 0 -- -- 98
2018-01-20 04:00:00 -2.5 0 Calma 8 Oeste 0 -- -- 97
2018-01-20 03:00:00 -1.5 0 Calma 6 Oeste 0 -- -- 96
2018-01-20 02:00:00 0.3 6 Oeste 14 Oeste 0 -- -- 92
2018-01-20 01:00:00 1.7 3 Oeste 17 Oeste 0 -- -- 94
2018-01-20 00:00:00 3.3 12 Noroeste 15 Noroeste 0 -- -- 92
2018-01-19 23:00:00 3.8 7 Noroeste 13 Oeste 0 -- -- 91
2018-01-19 22:00:00 3.2 10 Oeste 16 Oeste 0 -- -- 92
2018-01-19 21:00:00 3.3 10 Oeste 17 Oeste 0 -- -- 90
2018-01-19 20:00:00 5.1 14 Noroeste 24 Noroeste 0 -- -- 83
2018-01-19 19:00:00 6.2 17 Oeste 31 Oeste 0 -- -- 76
2018-01-19 18:00:00 7.9 23 Oeste 39 Oeste 0 -- -- 70
2018-01-19 17:00:00 9.8 27 Oeste 40 Oeste 0 -- -- 63
2018-01-19 16:00:00 10.3 28 Oeste 38 Oeste 0 -- -- 63
2018-01-19 15:00:00 10.6 22 Noroeste 32 Oeste 0 -- -- 66
2018-01-19 14:00:00 10.1 21 Oeste 33 Oeste 0 -- -- 70
2018-01-19 13:00:00 8.2 20 Oeste 26 Noroeste 0 -- -- 76
2018-01-19 12:00:00 7.2 8 Oeste 18 Oeste 0 -- -- 81
2018-01-19 11:00:00 1.1 2 Sudeste 6 Nordeste 0 -- -- 93
2018-01-19 10:00:00 -1 2 Sudeste 5 Este 0 -- -- 92
2018-01-19 09:00:00 -4 0 Calma 4 Nordeste 0 -- -- 97
2018-01-19 08:00:00 -3.5 2 Sur 4 Sudeste 0 -- -- 98
2018-01-19 07:00:00 -3.7 2 Sudeste 6 Sur 0 -- -- 97
2018-01-19 06:00:00 -3.4 4 Este 7 Sudeste 0 -- -- 96
2018-01-19 05:00:00 -2.8 0 Calma 4 Sudeste 0 -- -- 96
2018-01-19 04:00:00 -2.3 3 Sudeste 4 Sur 0 -- -- 96
2018-01-19 03:00:00 -1.6 0 Calma 3 Sudeste 0 -- -- 97
2018-01-19 02:00:00 -1.6 0 Calma 5 Sudeste 0 -- -- 96
2018-01-19 01:00:00 -1.4 3 Sudeste -- -- 0 -- -- 95
2018-01-19 00:00:00 -1.2 0 Calma 4 Sudeste 0 -- -- 94
2018-01-18 23:00:00 0 0 Calma 3 Sudeste 0 -- -- 92
2018-01-18 22:00:00 1 3 Sur 6 Este 0 -- -- 91
2018-01-18 21:00:00 2.9 0 Calma 9 Oeste 0 -- -- 82
2018-01-18 20:00:00 4.8 6 Oeste 14 Noroeste 0 -- -- 73
2018-01-18 19:00:00 7.1 10 Noroeste 13 Noroeste 0 -- -- 67
2018-01-18 18:00:00 8.9 6 Noroeste 14 Oeste 0 -- -- 58
2018-01-18 17:00:00 12.4 10 Oeste 18 Noroeste 0 -- -- 48
2018-01-18 16:00:00 12.7 11 Noroeste 20 Oeste 0 -- -- 44
2018-01-18 15:00:00 12.3 13 Oeste 25 Oeste 0 -- -- 49
2018-01-18 14:00:00 11.8 5 Oeste 10 Sur 0 -- -- 59
2018-01-18 13:00:00 10.6 4 Sudeste 12 Nordeste 0 -- -- 61
2018-01-18 12:00:00 8 5 Nordeste 8 Nordeste 0 -- -- 69
2018-01-18 11:00:00 5.7 0 Calma 3 Este 0 -- -- 71
2018-01-18 10:00:00 1.4 0 Calma 3 Sudeste 0 -- -- 88
2018-01-18 09:00:00 -3.4 2 Sudeste 3 Sudeste 0 -- -- 97
2018-01-18 08:00:00 -3.8 2 Sudeste 4 Sur 0 -- -- 97
2018-01-18 07:00:00 -3.8 0 Calma 4 Sur 0 -- -- 98
2018-01-18 06:00:00 -3.6 0 Calma 2 Sudeste 0 -- -- 97
2018-01-18 05:00:00 -3.1 2 Sudeste 2 Sudeste 0 -- -- 97
2018-01-18 04:00:00 -2.6 0 Calma 4 Sur 0 -- -- 97
2018-01-18 03:00:00 -2.8 0 Calma 5 Sudeste 0 -- -- 97
2018-01-18 02:00:00 -2.4 0 Calma 4 Sudeste 0 -- -- 95
2018-01-18 01:00:00 -1.2 0 Calma 6 Sudeste 0 -- -- 93
2018-01-18 00:00:00 -0.8 0 Calma 5 Sudeste 0 -- -- 92
2018-01-17 23:00:00 -0.2 2 Oeste 4 Sudeste 0 -- -- 93
2018-01-17 22:00:00 0.8 3 Sudeste 4 Sudeste 0 -- -- 88
2018-01-17 21:00:00 2.4 3 Este 13 Oeste 0 -- -- 81
2018-01-17 20:00:00 4.8 10 Noroeste 15 Noroeste 0 -- -- 72
2018-01-17 19:00:00 4.2 8 Noroeste 11 Noroeste 0 -- -- 77
2018-01-17 18:00:00 6.6 3 Noroeste 15 Noroeste 0 -- -- 67
2018-01-17 17:00:00 8.3 11 Noroeste 29 Noroeste 0 -- -- 60
2018-01-17 16:00:00 9 16 Noroeste 27 Oeste 0 -- -- 61
2018-01-17 15:00:00 9.7 18 Oeste 35 Oeste 0 -- -- 63
2018-01-17 14:00:00 8.4 16 Oeste 35 Oeste 0 -- -- 73
2018-01-17 13:00:00 8.2 18 Oeste 28 Oeste 0 -- -- 78
2018-01-17 12:00:00 6.3 21 Oeste 30 Oeste 0 -- -- 87
2018-01-17 11:00:00 6.1 22 Oeste 32 Oeste 0 -- -- 87
2018-01-17 10:00:00 6 23 Oeste 33 Oeste 0 -- -- 90
2018-01-17 09:00:00 6 13 Oeste 31 Noroeste 0 -- -- 91
2018-01-17 08:00:00 6.4 21 Oeste 35 Oeste 0 -- -- 90
2018-01-17 07:00:00 6.7 27 Oeste 39 Oeste 0 -- -- 91
2018-01-17 06:00:00 6.9 28 Oeste 38 Oeste 0 -- -- 90
2018-01-17 05:00:00 6.9 22 Oeste 31 Oeste 0 -- -- 90
2018-01-17 04:00:00 7 23 Oeste 31 Oeste 0 -- -- 91
2018-01-17 03:00:00 6.7 16 Oeste 25 Oeste 0 -- -- 93
2018-01-17 02:00:00 7.2 21 Oeste 28 Oeste 0 -- -- 92
2018-01-17 01:00:00 7.7 19 Oeste 37 Oeste 0 -- -- 91
2018-01-17 00:00:00 8 31 Oeste 54 Oeste 0 -- -- 90
2018-01-16 23:00:00 8.2 30 Oeste 49 Oeste 0 -- -- 90
2018-01-16 22:00:00 8.2 33 Oeste 43 Oeste 0 -- -- 90
2018-01-16 21:00:00 8.2 22 Oeste 32 Oeste 0 -- -- 89
2018-01-16 20:00:00 8 15 Oeste 28 Oeste 0 -- -- 90
2018-01-16 19:00:00 7.9 15 Oeste 28 Oeste 0 -- -- 91
2018-01-16 18:00:00 8.2 19 Oeste 34 Oeste 0 -- -- 90
2018-01-16 17:00:00 8.3 23 Oeste 37 Noroeste 0 -- -- 90
2018-01-16 16:00:00 8.2 23 Oeste 39 Oeste 0 -- -- 90
2018-01-16 15:00:00 8.1 13 Oeste 23 Oeste 0 -- -- 93
2018-01-16 14:00:00 7.3 16 Oeste 25 Oeste 0 -- -- 96
2018-01-16 13:00:00 6.7 17 Oeste 27 Oeste 0 -- -- 96
2018-01-16 12:00:00 6.1 14 Oeste 31 Oeste 0 -- -- 96
2018-01-16 11:00:00 5.7 25 Oeste 34 Oeste 0.4 -- -- 97
2018-01-16 10:00:00 4.8 15 Oeste 23 Oeste 0.2 -- -- 96
2018-01-16 09:00:00 4.6 13 Oeste 20 Oeste 0.2 -- -- 96
2018-01-16 08:00:00 4.2 13 Oeste 22 Oeste 0 -- -- 95
2018-01-16 07:00:00 4.4 18 Oeste 30 Oeste 0 -- -- 90
2018-01-16 06:00:00 4.6 18 Oeste 27 Oeste 0 -- -- 86
2018-01-16 05:00:00 4.4 15 Oeste 24 Noroeste 0 -- -- 82
2018-01-16 04:00:00 4.2 9 Oeste 15 Oeste 0 -- -- 80
2018-01-16 03:00:00 4.3 11 Oeste 22 Oeste 0 -- -- 76
2018-01-16 02:00:00 4.1 8 Oeste 15 Oeste 0 -- -- 75
2018-01-16 01:00:00 4 5 Noroeste 19 Oeste 0 -- -- 78
2018-01-16 00:00:00 3.8 8 Oeste 13 Oeste 0 -- -- 82
2018-01-15 23:00:00 3.8 4 Noroeste 11 Oeste 0 -- -- 82
2018-01-15 22:00:00 4.1 10 Oeste 16 Oeste 0 -- -- 80
2018-01-15 21:00:00 3.6 6 Oeste 11 Noroeste 0 -- -- 84
2018-01-15 20:00:00 3 5 Noroeste 10 Noroeste 0 -- -- 89
2018-01-15 19:00:00 2.7 2 Norte 10 Noroeste 0 -- -- 90
2018-01-15 18:00:00 2.8 4 Norte 8 Norte 0 -- -- 89
2018-01-15 17:00:00 3.1 9 Noroeste 18 Noroeste 0 -- -- 86
2018-01-15 16:00:00 3.6 11 Noroeste 21 Noroeste 0 -- -- 85
2018-01-15 15:00:00 2.6 13 Noroeste 22 Noroeste 0 -- -- 89
2018-01-15 14:00:00 2.2 12 Noroeste 20 Noroeste 0 -- -- 90
2018-01-15 13:00:00 1.4 10 Noroeste 19 Noroeste 0 -- -- 92
2018-01-15 12:00:00 0.2 10 Noroeste 17 Oeste 0 -- -- 96
2018-01-15 11:00:00 -0.8 8 Oeste 18 Noroeste 0 -- -- 97
2018-01-15 10:00:00 -0.8 5 Oeste 14 Oeste 0 -- -- 97
2018-01-15 09:00:00 -1.2 10 Noroeste 15 Oeste 0 -- -- 97
2018-01-15 08:00:00 -1 8 Oeste 18 Oeste 0 -- -- 97
2018-01-15 07:00:00 -1.2 7 Noroeste 26 Oeste 0 -- -- 96
2018-01-15 06:00:00 -1.1 18 Oeste 26 Oeste 0 -- -- 97
2018-01-15 05:00:00 -1.5 7 Oeste 15 Noroeste 0 -- -- 97
2018-01-15 04:00:00 -0.6 12 Oeste 19 Oeste 0 -- -- 96
2018-01-15 03:00:00 -0.8 5 Oeste 14 Oeste 0 -- -- 96
2018-01-15 02:00:00 -1.2 7 Oeste 12 Oeste 0 -- -- 96
2018-01-15 01:00:00 -1.3 5 Oeste 15 Oeste 0 -- -- 96
2018-01-15 00:00:00 -0.8 6 Oeste 15 Oeste 0 -- -- 94
2018-01-14 23:00:00 -0.3 10 Oeste 14 Oeste 0 -- -- 94
2018-01-14 22:00:00 0 5 Sudoeste 11 Sudoeste 0 -- -- 93
2018-01-14 21:00:00 0 7 Oeste 12 Oeste 0 -- -- 93
2018-01-14 20:00:00 0.2 7 Oeste 13 Noroeste 0 -- -- 93
2018-01-14 19:00:00 1.1 9 Oeste 17 Oeste 0 -- -- 90
2018-01-14 18:00:00 1.6 13 Oeste 22 Oeste 0 -- -- 88
2018-01-14 17:00:00 1.7 13 Oeste 21 Oeste 0 -- -- 89
2018-01-14 16:00:00 1.9 13 Noroeste 20 Oeste 0 -- -- 89
2018-01-14 15:00:00 2.3 12 Noroeste 21 Noroeste 0 -- -- 87
2018-01-14 14:00:00 2.5 13 Noroeste 18 Noroeste 0 -- -- 86
2018-01-14 13:00:00 2.6 9 Oeste 20 Oeste 0 -- -- 87
2018-01-14 12:00:00 1.7 8 Noroeste 15 Noroeste 0 -- -- 94
2018-01-14 11:00:00 0.8 11 Norte 18 Oeste 0 -- -- 97
2018-01-14 10:00:00 0.9 13 Oeste 22 Oeste 0.2 -- -- 97
2018-01-14 09:00:00 0.9 15 Oeste 22 Oeste 0 -- -- 98
2018-01-14 08:00:00 1.1 15 Oeste 26 Oeste 0 -- -- 97
2018-01-14 07:00:00 1.4 16 Oeste 24 Oeste 0 -- -- 97
2018-01-14 06:00:00 1.4 12 Oeste 29 Oeste 0 -- -- 97
2018-01-14 05:00:00 1.3 9 Oeste 17 Oeste 0 -- -- 98
2018-01-14 04:00:00 0.8 11 Oeste 21 Oeste 0.8 -- -- 98
2018-01-14 03:00:00 0.8 12 Oeste 17 Oeste 0.2 -- -- 97
2018-01-14 02:00:00 0.6 12 Oeste 17 Oeste 0.2 -- -- 96
2018-01-14 01:00:00 1.1 11 Noroeste 19 Noroeste 0 -- -- 95
2018-01-14 00:00:00 1.4 13 Noroeste 39 Oeste 0 -- -- 95
2018-01-13 23:00:00 1.4 25 Oeste 37 Oeste 0.4 -- -- 95
2018-01-13 22:00:00 1.4 26 Oeste 37 Oeste 1.8 -- -- 96
2018-01-13 21:00:00 0.7 10 Oeste 19 Oeste 1 -- -- 98
2018-01-13 20:00:00 0.3 8 Oeste 13 Oeste 0.2 -- -- 98
2018-01-13 19:00:00 0.2 0 Calma 6 Oeste 0.4 -- -- 97
2018-01-13 18:00:00 0.2 5 Oeste 6 Oeste 0.2 -- -- 96
2018-01-13 17:00:00 0.9 2 Sudoeste 5 Sudoeste 1.4 -- -- 92
2018-01-13 16:00:00 2.8 3 Sur 17 Sudoeste 0 -- -- 85
2018-01-13 15:00:00 3.6 15 Oeste 24 Oeste 0 -- -- 77
2018-01-13 14:00:00 5.3 0 Calma 8 Nordeste 0 -- -- 72
2018-01-13 13:00:00 3.6 6 Nordeste 14 Este 0 -- -- 81
2018-01-13 12:00:00 2.7 11 Este 15 Este 0 -- -- 86
2018-01-13 11:00:00 1 5 Este 8 Este 0 -- -- 95
2018-01-13 10:00:00 -0.5 4 Nordeste 8 Nordeste 0 -- -- 97
2018-01-13 09:00:00 -1.4 2 Este 8 Este 0 -- -- 98
2018-01-13 08:00:00 -1.6 0 Calma 6 Este 0 -- -- 98
2018-01-13 07:00:00 -1.5 4 Este 9 Nordeste 0 -- -- 98
2018-01-13 06:00:00 -1.5 0 Calma 8 Nordeste 0 -- -- 98
2018-01-13 05:00:00 -1.8 4 Este 8 Este 0 -- -- 98
2018-01-13 04:00:00 -1.6 0 Calma 9 Este 0 -- -- 98
2018-01-13 03:00:00 -2 0 Calma 5 Este 0 -- -- 98
2018-01-13 02:00:00 -2 4 Este 6 Nordeste 0 -- -- 98
2018-01-13 01:00:00 -2.2 3 Este 5 Este 0 -- -- 98
2018-01-13 00:00:00 -1.9 0 Calma 6 Este 0 -- -- 97
2018-01-12 23:00:00 -1.2 2 Este 4 Este 0 -- -- 96
2018-01-12 22:00:00 -0.5 2 Oeste 4 Sudeste 0 -- -- 96
2018-01-12 21:00:00 0.6 0 Calma 2 Noroeste 0 -- -- 94
2018-01-12 20:00:00 1.7 0 Calma 6 Oeste 0 -- -- 91
2018-01-12 19:00:00 2.1 2 Oeste 6 Oeste 0 -- -- 90
2018-01-12 18:00:00 3.1 2 Norte 6 Noroeste 0 -- -- 85
2018-01-12 17:00:00 4.4 3 Noroeste 13 Noroeste 0 -- -- 79
2018-01-12 16:00:00 5.5 6 Oeste 12 Oeste 0 -- -- 73
2018-01-12 15:00:00 4.6 6 Noroeste 17 Noroeste 0 -- -- 78
2018-01-12 14:00:00 2.7 10 Noroeste 18 Noroeste 0 -- -- 86
2018-01-12 13:00:00 1.6 11 Oeste 22 Oeste 0 -- -- 92
2018-01-12 12:00:00 1.5 19 Noroeste 28 Oeste 0 -- -- 89
2018-01-12 11:00:00 0.6 16 Oeste 26 Oeste 0 -- -- 94
2018-01-12 10:00:00 0.2 16 Oeste 23 Noroeste 0 -- -- 94
2018-01-12 09:00:00 0 19 Oeste 26 Oeste 0 -- -- 94
2018-01-12 08:00:00 -0.1 18 Oeste 30 Oeste 0 -- -- 94
2018-01-12 07:00:00 -0.3 22 Oeste 29 Oeste 0 -- -- 94
2018-01-12 06:00:00 -0.2 17 Oeste 26 Oeste 0 -- -- 91
2018-01-12 05:00:00 0.9 17 Oeste 26 Oeste 0 -- -- 89
2018-01-12 04:00:00 0.9 13 Oeste 28 Oeste 0 -- -- 88
2018-01-12 03:00:00 0.9 19 Oeste 33 Oeste 0 -- -- 88
2018-01-12 02:00:00 1.4 29 Oeste 37 Oeste 0 -- -- 86
2018-01-12 01:00:00 1.9 27 Oeste 36 Oeste 0 -- -- 86
2018-01-12 00:00:00 2.1 25 Oeste 38 Noroeste 0 -- -- 86
2018-01-11 23:00:00 2.4 23 Oeste 39 Oeste 0 -- -- 85
2018-01-11 22:00:00 2.8 25 Oeste 40 Oeste 0 -- -- 83
2018-01-11 21:00:00 3.4 31 Oeste 46 Oeste 0 -- -- 73
2018-01-11 20:00:00 3.4 30 Oeste 43 Oeste 0 -- -- 72
2018-01-11 19:00:00 3.3 24 Oeste 38 Oeste 0 -- -- 74
2018-01-11 18:00:00 3.4 28 Oeste 41 Oeste 0 -- -- 72
2018-01-11 17:00:00 4 24 Oeste 41 Oeste 0 -- -- 69
2018-01-11 16:00:00 4.2 30 Oeste 49 Oeste 0 -- -- 68
2018-01-11 15:00:00 4.3 33 Oeste 49 Oeste 0 -- -- 66
2018-01-11 14:00:00 3.7 32 Oeste 49 Oeste 0 -- -- 70
2018-01-11 13:00:00 3.2 29 Oeste 46 Oeste 0 -- -- 78
2018-01-11 12:00:00 2.2 32 Oeste 49 Oeste 0 -- -- 82
2018-01-11 11:00:00 1.8 36 Oeste 48 Oeste 0 -- -- 85
2018-01-11 10:00:00 1.2 31 Oeste 44 Oeste 0 -- -- 88
2018-01-11 09:00:00 1 26 Oeste 37 Oeste 0 -- -- 89
2018-01-11 08:00:00 1.1 28 Oeste 44 Oeste 0 -- -- 87
2018-01-11 07:00:00 1.4 24 Oeste 46 Oeste 0 -- -- 89
2018-01-11 06:00:00 1.6 25 Oeste 49 Oeste 0 -- -- 89
2018-01-11 05:00:00 1.6 33 Oeste 46 Oeste 0 -- -- 88
2018-01-11 04:00:00 1.8 29 Oeste 44 Oeste 0 -- -- 87
2018-01-11 03:00:00 1.5 19 Oeste 38 Oeste 0 -- -- 88
2018-01-11 02:00:00 1.4 22 Oeste 37 Oeste 0 -- -- 88
2018-01-11 01:00:00 0.9 23 Oeste 36 Oeste 0 -- -- 90
2018-01-11 00:00:00 0.9 27 Oeste 41 Oeste 0 -- -- 88
2018-01-10 23:00:00 1.3 33 Oeste 51 Oeste 0 -- -- 89
2018-01-10 22:00:00 2.1 30 Oeste 54 Oeste 0 -- -- 89
2018-01-10 21:00:00 2.4 29 Oeste 49 Oeste 0 -- -- 86
2018-01-10 20:00:00 3.5 40 Oeste 54 Oeste 0 -- -- 84
2018-01-10 19:00:00 3.4 28 Oeste 62 Oeste 1.4 -- -- 87
2018-01-10 18:00:00 3.4 34 Oeste 47 Oeste 0.4 -- -- 91
2018-01-10 17:00:00 3.9 20 Sudoeste 38 Oeste 0 -- -- 85
2018-01-10 16:00:00 4.8 18 Sudoeste 28 Sudoeste 0 -- -- 83
2018-01-10 15:00:00 3.7 15 Oeste 34 Oeste 0 -- -- 88
2018-01-10 14:00:00 3.8 20 Oeste 33 Oeste 0 -- -- 90
2018-01-10 13:00:00 3.2 25 Oeste 33 Oeste 0 -- -- 96
2018-01-10 12:00:00 2.4 12 Oeste 24 Oeste 0 -- -- 98
2018-01-10 11:00:00 1.9 15 Sudoeste 21 Sudoeste 0 -- -- 98
2018-01-10 10:00:00 1.7 12 Oeste 20 Oeste 0.2 -- -- 99
2018-01-10 09:00:00 0.6 0 Calma 2 Sudeste 1.4 -- -- 99
2018-01-10 08:00:00 0.4 0 Calma 2 Sudeste 0.8 -- -- 99
2018-01-10 07:00:00 0.5 0 Calma 2 Sur 0.2 -- -- 99
2018-01-10 06:00:00 0.3 0 Calma 3 Sudeste 0.2 -- -- 99
2018-01-10 05:00:00 0.3 2 Sudeste 3 Sudeste 0.4 -- -- 99
2018-01-10 04:00:00 0.3 0 Calma 4 Este 1.2 -- -- 99
2018-01-10 03:00:00 0.3 0 Calma 3 Nordeste 1 -- -- 98
2018-01-10 02:00:00 0.2 2 Nordeste 4 Nordeste 1 -- -- 98
2018-01-10 01:00:00 0.2 3 Nordeste 5 Nordeste 0.8 -- -- 98
2018-01-10 00:00:00 0.3 3 Nordeste 6 Este 0.6 -- -- 98
2018-01-09 23:00:00 0.2 2 Este 6 Nordeste 0.8 -- -- 98
2018-01-09 22:00:00 0.1 4 Este 8 Este 0.2 -- -- 97
2018-01-09 21:00:00 0 3 Nordeste 6 Nordeste 0 -- -- 97
2018-01-09 20:00:00 0.1 2 Nordeste 5 Nordeste 0 -- -- 96
2018-01-09 19:00:00 0.2 0 Calma 10 Este 0.2 -- -- 94
2018-01-09 18:00:00 0.8 7 Nordeste 10 Este 0 -- -- 89
2018-01-09 17:00:00 1.4 5 Este 8 Este 0 -- -- 85
2018-01-09 16:00:00 2.1 3 Este 7 Nordeste 0 -- -- 81
2018-01-09 15:00:00 2.3 0 Calma 8 Este 0 -- -- 78
2018-01-09 14:00:00 1.7 3 Este 9 Este 0 -- -- 83
2018-01-09 13:00:00 -0.3 3 Nordeste 6 Este 0 -- -- 88
2018-01-09 12:00:00 -4.9 2 Sudeste 4 Este 0 -- -- 94
2018-01-09 11:00:00 -6.2 0 Calma 2 Este 0 -- -- 91
2018-01-09 10:00:00 -7.7 0 Calma 4 Este 0 -- -- 93
2018-01-09 09:00:00 -10 0 Calma 2 Este 0 -- -- 92
2018-01-09 08:00:00 -10.1 0 Calma 3 Este 0 -- -- 92
2018-01-09 07:00:00 -10.6 0 Calma 2 Este 0 -- -- 92
2018-01-09 06:00:00 -10.5 0 Calma 2 Nordeste 0 -- -- 93
2018-01-09 05:00:00 -10.3 0 Calma 2 Este 0 -- -- 93
2018-01-09 04:00:00 -9.9 0 Calma 2 Sudeste 0 -- -- 93
2018-01-09 03:00:00 -9.3 0 Calma 2 Sudeste 0 -- -- 93
2018-01-09 02:00:00 -8.4 0 Calma 5 Sudeste 0 -- -- 96
2018-01-09 01:00:00 -7.9 0 Calma 6 Oeste 0 -- -- 96
2018-01-09 00:00:00 -6.6 0 Calma 13 Oeste 0 -- -- 94
2018-01-08 23:00:00 -4.8 9 Oeste 11 Oeste 0 -- -- 92
2018-01-08 22:00:00 -6.5 3 Sudoeste 12 Oeste 0 -- -- 94
2018-01-08 21:00:00 -5.9 2 Oeste 9 Oeste 0 -- -- 93
2018-01-08 20:00:00 -5.2 2 Noroeste 18 Oeste 0 -- -- 90
2018-01-08 19:00:00 -4 6 Oeste 11 Oeste 0 -- -- 94
2018-01-08 18:00:00 -2.3 8 Oeste 13 Oeste 0 -- -- 84
2018-01-08 17:00:00 0.5 11 Oeste 13 Oeste 0.2 -- -- 74
2018-01-08 16:00:00 1.4 8 Sudoeste 12 Sudoeste 0.8 -- -- 71
2018-01-08 15:00:00 3.7 0 Calma 5 Noroeste 1.2 -- -- 71
2018-01-08 14:00:00 1.7 4 Oeste 6 Oeste 1.2 -- -- 86
2018-01-08 13:00:00 1.8 3 Sudoeste 4 Oeste 1.4 -- -- 83
2018-01-08 12:00:00 0.9 0 Calma 2 Sudeste 0.2 -- -- 85
2018-01-08 11:00:00 -5.2 0 Calma 2 Oeste 0 -- -- 89
2018-01-08 10:00:00 -8 0 Calma 3 Oeste 0 -- -- 93
2018-01-08 09:00:00 -8.5 0 Calma 2 Sudeste 0 -- -- 94
2018-01-08 08:00:00 -8 0 Calma 2 Este 0 -- -- 94
2018-01-08 07:00:00 -8.1 2 Este 4 Este 0 -- -- 95
2018-01-08 06:00:00 -8.5 2 Nordeste 4 Este 0 -- -- 95
2018-01-08 05:00:00 -7.7 0 Calma 3 Este 0 -- -- 95
2018-01-08 04:00:00 -7.3 0 Calma 3 Este 0 -- -- 95
2018-01-08 03:00:00 -6.7 0 Calma 8 Sudoeste 0 -- -- 95
2018-01-08 02:00:00 -6.4 6 Oeste 8 Sudoeste 0 -- -- 96
2018-01-08 01:00:00 -3.9 2 Sudeste 6 Nordeste 0 -- -- 97
2018-01-08 00:00:00 -3.9 4 Nordeste 7 Nordeste 0 -- -- 97
2018-01-07 23:00:00 -3.3 3 Este 5 Este 0 -- -- 98
2018-01-07 22:00:00 -3 2 Nordeste 10 Nordeste 0 -- -- 93
2018-01-07 21:00:00 -1.5 5 Sudeste 14 Este 0.2 -- -- 95
2018-01-07 20:00:00 -1.1 10 Este 19 Este 0 -- -- 93
2018-01-07 19:00:00 0.3 12 Sudeste 19 Este 0 -- -- 94
2018-01-07 18:00:00 0.7 10 Este 25 Sudeste 0.4 -- -- 92
2018-01-07 17:00:00 2.1 19 Sudeste 30 Sudeste 2 -- -- 85
2018-01-07 16:00:00 1.4 23 Este 34 Este 2.4 -- -- 91
2018-01-07 15:00:00 1.9 21 Este 35 Este 3.6 -- -- 93
2018-01-07 14:00:00 1.7 15 Este 23 Este 3.6 -- -- 95
2018-01-07 13:00:00 3.3 0 Calma 2 Este 3 -- -- 90
2018-01-07 12:00:00 0.9 0 Calma -- -- 3 -- -- 97
2018-01-07 11:00:00 0.7 0 Calma -- -- 0.6 -- -- 100
2018-01-07 10:00:00 -0.1 0 Calma -- -- 0 -- -- 99
2018-01-07 09:00:00 -0.5 0 Calma -- -- 0 -- -- 99
2018-01-07 08:00:00 -0.5 0 Calma -- -- 0 -- -- 99
2018-01-07 07:00:00 -0.5 0 Calma -- -- 0 -- -- 99
2018-01-07 06:00:00 -0.6 0 Calma -- -- 0 -- -- 99
2018-01-07 05:00:00 -0.4 0 Calma -- -- 0 -- -- 99
2018-01-07 04:00:00 -0.3 0 Calma -- -- 0 -- -- 99
2018-01-07 03:00:00 -0.2 0 Calma -- -- 0 -- -- 99
2018-01-07 02:00:00 -0.1 0 Calma -- -- 0.2 -- -- 99
2018-01-07 01:00:00 0 0 Calma -- -- 0 -- -- 99
2018-01-07 00:00:00 0 0 Calma -- -- 0.2 -- -- 99
2018-01-06 23:00:00 0 0 Calma -- -- 0.2 -- -- 99
2018-01-06 22:00:00 0 0 Calma -- -- 0.2 -- -- 99
2018-01-06 21:00:00 0.1 0 Calma -- -- 0 -- -- 98
2018-01-06 20:00:00 0 0 Calma 9 Oeste 0.2 -- -- 98
2018-01-06 19:00:00 0 9 Oeste 11 Oeste 0.6 -- -- 98
2018-01-06 18:00:00 0.2 5 Oeste 7 Noroeste 1 -- -- 98
2018-01-06 17:00:00 0.5 0 Calma 6 Oeste 1.4 -- -- 97
2018-01-06 16:00:00 0.6 3 Oeste 5 Sudoeste 1 -- -- 96
2018-01-06 15:00:00 0.8 3 Oeste 6 Noroeste 1.8 -- -- 96
2018-01-06 14:00:00 0.8 6 Noroeste 13 Sudoeste 2 -- -- 96
2018-01-06 13:00:00 1.4 0 Calma 0 Calma 1.6 -- -- 94
2018-01-06 12:00:00 0.7 0 Calma 0 Calma 0.8 -- -- 97
2018-01-06 11:00:00 0.5 0 Calma -- -- 0.2 -- -- 97
2018-01-06 10:00:00 0.2 0 Calma 5 Sudoeste 0 -- -- 97
2018-01-06 09:00:00 0.4 0 Calma 3 Sudeste 0.4 -- -- 97
2018-01-06 08:00:00 0.8 0 Calma 2 Noroeste 0.6 -- -- 97
2018-01-06 07:00:00 1 0 Calma 11 Noroeste 0.4 -- -- 97
2018-01-06 06:00:00 1.2 9 Noroeste 14 Noroeste 0.4 -- -- 96
2018-01-06 05:00:00 1.6 4 Oeste 15 Oeste 1.2 -- -- 97
2018-01-06 04:00:00 1.5 14 Oeste 20 Oeste 0.6 -- -- 97
2018-01-06 03:00:00 1.4 13 Oeste 21 Oeste 1 -- -- 97
2018-01-06 02:00:00 1 14 Oeste 24 Oeste 1.4 -- -- 96
2018-01-06 01:00:00 1.5 19 Oeste 36 Noroeste 0.8 -- -- 94
2018-01-06 00:00:00 3.4 18 Noroeste 27 Noroeste 1.8 -- -- 94
2018-01-05 23:00:00 4.3 18 Noroeste 28 Noroeste 1.8 -- -- 95
2018-01-05 22:00:00 5.5 2 Norte 5 Noroeste 0.8 -- -- 96
2018-01-05 21:00:00 5.7 3 Nordeste 11 Noroeste 0.4 -- -- 96
2018-01-05 20:00:00 5.9 3 Nordeste 9 Este 0.6 -- -- 96
2018-01-05 19:00:00 6.1 4 Nordeste 8 Nordeste 1.4 -- -- 94
2018-01-05 18:00:00 6.5 2 Noroeste 15 Oeste 0.6 -- -- 92
2018-01-05 17:00:00 6.8 10 Oeste 22 Sudoeste 0.2 -- -- 91
2018-01-05 16:00:00 6.9 17 Sudoeste 30 Sudoeste 1 -- -- 90
2018-01-05 15:00:00 7.7 22 Oeste 44 Oeste 0.2 -- -- 84
2018-01-05 14:00:00 9.3 33 Oeste 53 Oeste 0 -- -- 73
2018-01-05 13:00:00 9.2 14 Sur 35 Sudoeste 0 -- -- 67
2018-01-05 12:00:00 9.3 16 Sudoeste 25 Sur 0 -- -- 66
2018-01-05 11:00:00 8.6 11 Sur 25 Sudoeste 0 -- -- 69
2018-01-05 10:00:00 7.9 12 Sudoeste 27 Sudoeste 0 -- -- 70
2018-01-05 09:00:00 7.1 16 Sudoeste 33 Sudoeste 0 -- -- 80
2018-01-05 08:00:00 6.9 18 Sudoeste 35 Sudoeste 0 -- -- 84
2018-01-05 07:00:00 7 14 Oeste 31 Oeste 0 -- -- 81
2018-01-05 06:00:00 7.3 22 Oeste 36 Sudoeste 0 -- -- 82
2018-01-05 05:00:00 7.7 16 Oeste 26 Oeste 0 -- -- 85
2018-01-05 04:00:00 8.1 17 Oeste 32 Oeste 0 -- -- 83
2018-01-05 03:00:00 8.7 21 Oeste 36 Oeste 0 -- -- 80
2018-01-05 02:00:00 9.1 25 Oeste 36 Oeste 0 -- -- 79
2018-01-05 01:00:00 9.3 21 Oeste 28 Oeste 0 -- -- 77
2018-01-05 00:00:00 9.2 19 Oeste 31 Oeste 0 -- -- 79
2018-01-04 23:00:00 9.3 19 Oeste 38 Oeste 0 -- -- 77
2018-01-04 22:00:00 9.4 23 Oeste 36 Oeste 0 -- -- 76
2018-01-04 21:00:00 9.2 24 Oeste 37 Oeste 0 -- -- 76
2018-01-04 20:00:00 9.3 26 Oeste 41 Oeste 0 -- -- 76
2018-01-04 19:00:00 9.1 22 Oeste 31 Oeste 0 -- -- 79
2018-01-04 18:00:00 9.6 15 Oeste 40 Oeste 0 -- -- 74
2018-01-04 17:00:00 9.9 16 Oeste 41 Oeste 0 -- -- 77
2018-01-04 16:00:00 9.9 30 Oeste 46 Oeste 0 -- -- 75
2018-01-04 15:00:00 10.8 27 Oeste 51 Oeste 0 -- -- 70
2018-01-04 14:00:00 10.6 33 Oeste 51 Oeste 0 -- -- 70
2018-01-04 13:00:00 10.8 26 Oeste 46 Oeste 0 -- -- 74
2018-01-04 12:00:00 10.8 29 Oeste 41 Oeste 0 -- -- 73
2018-01-04 11:00:00 10.7 27 Oeste 43 Oeste 0 -- -- 80
2018-01-04 10:00:00 10.6 29 Oeste 40 Oeste 0 -- -- 82
2018-01-04 09:00:00 9.6 28 Oeste 39 Oeste 0 -- -- 87
2018-01-04 08:00:00 9.7 24 Oeste 37 Oeste 0 -- -- 87
2018-01-04 07:00:00 9.6 18 Oeste 31 Oeste 0 -- -- 89
2018-01-04 06:00:00 9.7 21 Oeste 32 Oeste 0 -- -- 88
2018-01-04 05:00:00 9.6 15 Oeste 34 Oeste 0 -- -- 91
2018-01-04 04:00:00 9.5 26 Oeste 33 Oeste 0 -- -- 92
2018-01-04 03:00:00 10 20 Oeste 38 Oeste 0 -- -- 90
2018-01-04 02:00:00 10.2 21 Oeste 33 Oeste 0 -- -- 90
2018-01-04 01:00:00 10.4 24 Oeste 32 Oeste 0 -- -- 89
2018-01-04 00:00:00 10.5 9 Oeste 27 Oeste 0 -- -- 90
2018-01-03 23:00:00 11.1 18 Oeste 33 Oeste 0 -- -- 87
2018-01-03 22:00:00 11.4 24 Oeste 35 Oeste 0 -- -- 86
2018-01-03 21:00:00 11.3 19 Oeste 29 Oeste 0 -- -- 86
2018-01-03 20:00:00 11.3 18 Oeste 34 Oeste 0 -- -- 85
2018-01-03 19:00:00 11.4 24 Oeste 40 Oeste 0 -- -- 86
2018-01-03 18:00:00 11.4 12 Oeste 35 Oeste 0 -- -- 87
2018-01-03 17:00:00 11.4 17 Oeste 48 Oeste 0 -- -- 88
2018-01-03 16:00:00 11.4 33 Oeste 45 Oeste 0 -- -- 87
2018-01-03 15:00:00 10.9 22 Oeste 46 Oeste 0 -- -- 90
2018-01-03 14:00:00 10.9 33 Oeste 48 Oeste 0 -- -- 90
2018-01-03 13:00:00 10.7 28 Oeste 46 Oeste 0 -- -- 92
2018-01-03 12:00:00 10.3 30 Oeste 41 Oeste 0 -- -- 92
2018-01-03 11:00:00 10 23 Oeste 33 Oeste 0 -- -- 94
2018-01-03 10:00:00 9.6 27 Oeste 40 Oeste 0 -- -- 95
2018-01-03 09:00:00 10 23 Oeste 37 Oeste 0 -- -- 93
2018-01-03 08:00:00 10 22 Oeste 37 Oeste 0 -- -- 92
2018-01-03 07:00:00 10 26 Oeste 37 Oeste 0 -- -- 92
2018-01-03 06:00:00 10 28 Oeste 44 Oeste 0 -- -- 92
2018-01-03 05:00:00 10 31 Oeste 54 Oeste 0 -- -- 93
2018-01-03 04:00:00 9.9 35 Oeste 49 Oeste 0 -- -- 95
2018-01-03 03:00:00 9.7 25 Oeste 45 Oeste 0 -- -- 96
2018-01-03 02:00:00 9.6 18 Oeste 39 Oeste 0 -- -- 96
2018-01-03 01:00:00 9.6 26 Oeste 47 Oeste 0 -- -- 96
2018-01-03 00:00:00 9.4 22 Oeste 32 Oeste 0 -- -- 97
2018-01-02 23:00:00 9.2 21 Oeste 36 Oeste 0 -- -- 96
2018-01-02 22:00:00 8.7 18 Oeste 26 Oeste 0.2 -- -- 96
2018-01-02 21:00:00 8.5 13 Oeste 27 Oeste 0 -- -- 96
2018-01-02 20:00:00 8.4 19 Oeste 31 Oeste 0 -- -- 97
2018-01-02 19:00:00 8.1 21 Oeste 33 Oeste 0.2 -- -- 96
2018-01-02 18:00:00 7.9 19 Oeste 32 Oeste 0.4 -- -- 97
2018-01-02 17:00:00 7.8 18 Oeste 32 Oeste 0.2 -- -- 96
2018-01-02 16:00:00 7.8 23 Oeste 40 Oeste 0.2 -- -- 96
2018-01-02 15:00:00 7.6 23 Oeste 37 Oeste 0 -- -- 93
2018-01-02 14:00:00 7.6 25 Oeste 47 Oeste 0 -- -- 91
2018-01-02 13:00:00 7.8 27 Oeste 43 Oeste 0 -- -- 87
2018-01-02 12:00:00 7.1 24 Oeste 39 Oeste 0 -- -- 89
2018-01-02 11:00:00 6.5 28 Oeste 42 Oeste 0 -- -- 90
2018-01-02 10:00:00 6.2 24 Oeste 41 Oeste 0 -- -- 89
2018-01-02 09:00:00 6 24 Oeste 40 Oeste 0 -- -- 89
2018-01-02 08:00:00 5.7 28 Oeste 55 Oeste 0 -- -- 89
2018-01-02 07:00:00 5.9 38 Oeste 54 Oeste 0 -- -- 87
2018-01-02 06:00:00 6.1 33 Oeste 54 Oeste 0 -- -- 86
2018-01-02 05:00:00 6.3 37 Oeste 51 Oeste 0 -- -- 85
2018-01-02 04:00:00 6.4 36 Oeste 58 Oeste 0 -- -- 84
2018-01-02 03:00:00 6.7 35 Oeste 61 Oeste 0 -- -- 84
2018-01-02 02:00:00 7 36 Oeste 55 Oeste 0 -- -- 83
2018-01-02 01:00:00 7.2 27 Oeste 59 Oeste 0 -- -- 84
2018-01-02 00:00:00 7.4 40 Oeste 60 Oeste 0 -- -- 85
2018-01-01 23:00:00 7.7 39 Oeste 58 Oeste 0 -- -- 84
2018-01-01 22:00:00 7.9 40 Oeste 60 Oeste 0 -- -- 83
2018-01-01 21:00:00 7.5 37 Oeste 58 Oeste 0 -- -- 87
2018-01-01 20:00:00 7.3 38 Oeste 60 Oeste 0 -- -- 87
2018-01-01 19:00:00 6.9 39 Oeste 62 Oeste 0 -- -- 89
2018-01-01 18:00:00 6.7 41 Oeste 60 Oeste 0 -- -- 87
2018-01-01 17:00:00 6.3 41 Oeste 59 Oeste 0 -- -- 87
2018-01-01 16:00:00 5.9 43 Oeste 64 Oeste 0 -- -- 85
2018-01-01 15:00:00 5.5 42 Oeste 64 Oeste 0 -- -- 82
2018-01-01 14:00:00 5.7 38 Oeste 63 Oeste 0 -- -- 76
2018-01-01 13:00:00 6.2 38 Oeste 64 Oeste 0 -- -- 71
2018-01-01 12:00:00 6.7 45 Oeste 57 Sudoeste 0 -- -- 72
2018-01-01 11:00:00 5 36 Oeste 50 Oeste 0 -- -- 76
2018-01-01 10:00:00 3.6 35 Oeste 45 Oeste 0 -- -- 79
2018-01-01 09:00:00 2.8 32 Oeste 45 Oeste 0 -- -- 79
2018-01-01 08:00:00 2.1 28 Oeste 46 Oeste 0 -- -- 83
2018-01-01 07:00:00 2.2 34 Oeste 48 Oeste 0 -- -- 84
2018-01-01 06:00:00 2 29 Oeste 43 Oeste 0 -- -- 87
2018-01-01 05:00:00 1.9 23 Oeste 36 Oeste 0 -- -- 88
2018-01-01 04:00:00 1.9 24 Oeste 36 Oeste 0 -- -- 89
2018-01-01 03:00:00 1.9 26 Oeste 34 Oeste 0 -- -- 89
2018-01-01 02:00:00 1.2 12 Oeste 24 Oeste 0 -- -- 90
2018-01-01 01:00:00 1.3 16 Oeste 26 Oeste 0 -- -- 88
2018-01-01 00:00:00 1.7 15 Oeste 33 Oeste 0 -- -- 79
2017-12-31 23:00:00 1.8 17 Oeste 45 Oeste 0 -- -- 82
2017-12-31 22:00:00 2.5 28 Oeste 43 Oeste 0 -- -- 81
2017-12-31 21:00:00 4.3 31 Oeste 53 Oeste 0 -- -- 88
2017-12-31 20:00:00 5.3 33 Oeste 48 Oeste 0 -- -- 89
2017-12-31 19:00:00 5.6 31 Oeste 46 Oeste 0.2 -- -- 88
2017-12-31 18:00:00 5.3 34 Oeste 67 Oeste 2.2 -- -- 88
2017-12-31 17:00:00 7.8 17 Oeste 39 Oeste 0.4 -- -- 84
2017-12-31 16:00:00 9.4 27 Oeste 49 Oeste 0 -- -- 67
2017-12-31 15:00:00 10.3 34 Oeste 51 Sudoeste 0 -- -- 63
2017-12-31 14:00:00 8.7 28 Oeste 45 Oeste 0 -- -- 69
2017-12-31 13:00:00 8.8 28 Oeste 41 Oeste 0 -- -- 71
2017-12-31 12:00:00 8.6 21 Oeste 30 Sudoeste 0 -- -- 74
2017-12-31 11:00:00 7.6 17 Sudoeste 32 Sudoeste 0 -- -- 82
2017-12-31 10:00:00 6.4 14 Sudoeste 19 Sudoeste 0 -- -- 90
2017-12-31 09:00:00 5.9 9 Oeste 18 Oeste 0 -- -- 93
2017-12-31 08:00:00 4.6 3 Oeste 7 Sur 0 -- -- 97
2017-12-31 07:00:00 4.3 3 Oeste 8 Oeste 0 -- -- 97
2017-12-31 06:00:00 3.9 3 Sudoeste 6 Oeste 0 -- -- 96
2017-12-31 05:00:00 3.3 0 Calma 0 Calma 0 -- -- 97
2017-12-31 04:00:00 3 0 Calma 5 Sudeste 0 -- -- 96
2017-12-31 03:00:00 3 0 Calma 2 Este 0 -- -- 96
2017-12-31 02:00:00 2.5 0 Calma 3 Nordeste 0 -- -- 96
2017-12-31 01:00:00 2.7 0 Calma 2 Noroeste 0 -- -- 96